Bodega Marine Reserve, California Weather observations

Data are for 10 minute period ending at time listed.
 Day   Time   Solar   Ave.   Ave.  Ave.  Vector  Max.   Baro.   Total    
  of    of     Rad.   Air    Rel.  Wind   Wind   Wind  Press.  Precip.   
Year   Day            Temp.  Hum.  Speed  Dir.   Gust                    
2014   (PST)  Kw/m2    F      %     mph   deg.    mph    mb.     in.     
-------------------------------------------------------------------------
 210   16:10   0.29   60.3    83   10.1   285    15.1   1013.9    0.00 
 210   16:20   0.29   59.8    84   10.6   290    14.9   1013.9    0.00 
 210   16:30   0.27   59.8    84   10.8   296    14.6   1013.9    0.00 
 210   16:40   0.25   59.9    85   10.3   298    14.3   1013.5    0.00 
 210   16:50   0.21   59.9    85    9.7   293    14.2   1013.5    0.00 
 210   17:00   0.20   60.2    85    9.3   298    12.4   1013.5    0.00 
 210   17:10   0.18   60.0    85    9.3   285    12.6   1013.5    0.00 
 210   17:20   0.17   60.0    86    8.4   287    13.0   1013.5    0.00 
 210   17:30   0.15   60.1    85    8.2   285    11.6   1013.5    0.00 
 210   17:40   0.10   59.5    86    9.0   294    12.6   1013.2    0.00 
 210   17:50   0.09   59.1    88    9.2   289    12.4   1013.2    0.00 
 210   18:00   0.07   58.7    88    7.9   297    11.7   1013.2    0.00 
 210   18:10   0.07   58.8    88    7.6   298    11.8   1013.2    0.00 
 210   18:20   0.05   58.7    89    8.2   289    12.1   1013.2    0.00 
 210   18:30   0.04   58.3    90    8.5   290    11.5   1012.9    0.00 
 210   18:40   0.04   58.2    90    8.5   284    11.2   1012.9    0.00 
 210   18:50   0.03   58.1    91    8.4   288    12.8   1012.9    0.00 
 210   19:00   0.03   58.0    91    8.5   286    11.1   1012.9    0.00 
 210   19:10   0.02   57.8    91    7.2   305    10.2   1012.9    0.00 
 210   19:20   0.01   57.7    91    8.8   295    12.3   1012.9    0.00 
 210   19:30   0.00   57.7    92    7.9   286    11.4   1012.9    0.00 
 210   19:40   0.00   57.6    92    8.1   291    11.0   1012.9    0.00 
 210   19:50   0.00   57.4    93    8.3   287    11.5   1012.9    0.00 
 210   20:00   0.00   57.3    93    8.0   289    11.7   1012.9    0.00 
 210   20:10   0.00   57.1    93    7.8   295    11.5   1012.9    0.00 
 210   20:20   0.00   57.2    93    8.1   288    11.2   1012.9    0.00 
 210   20:30   0.00   57.1    93    9.1   292    13.1   1012.9    0.00 
 210   20:40   0.00   56.9    93    8.3   295    11.2   1012.9    0.00 
 210   20:50   0.00   56.6    93    7.8   295    11.5   1012.9    0.00 
 210   21:00   0.00   56.4    94    7.2   298     9.9   1013.2    0.00 
 210   21:10   0.00   56.5    94    7.1   290    11.4   1012.9    0.00 
 210   21:20   0.00   56.8    94    7.8   285    12.3   1012.9    0.00 
 210   21:30   0.00   56.9    94    6.0   291     8.8   1012.9    0.00 
 210   21:40   0.00   57.1    94    5.3   292     8.2   1012.9    0.00 
 210   21:50   0.00   57.4    94    5.2   302     7.5   1012.9    0.00 
 210   22:00   0.01   57.7    94    7.1   280     9.8   1012.9    0.00 
 210   22:10   0.01   57.4    94    6.2   264     8.7   1012.9    0.00 
 210   22:20   0.01   57.4    94    5.3   256     7.9   1012.9    0.00 
 210   22:30   0.01   57.4    94    6.3   263     9.5   1012.5    0.00 
 210   22:40   0.01   57.3    94    7.0   286    10.0   1012.5    0.00 
 210   22:50   0.01   57.3    94    5.4   289     9.0   1012.5    0.00 
 210   23:00   0.01   57.5    94    4.7   281     7.4   1012.5    0.00 
 210   23:10   0.01   57.6    94    4.6   274     6.9   1012.5    0.00 
 210   23:20   0.01   57.7    94    4.5   298     8.1   1012.5    0.00 
 210   23:30   0.01   57.8    94    3.2   321     4.8   1012.5    0.00 
 210   23:40   0.01   57.8    94    3.0   318     6.9   1012.5    0.00 
 210   23:50   0.01   57.9    94    3.5   304     6.0   1012.5    0.00 
 211    0:00   0.01   57.9    93    4.0   300     7.5   1012.5    0.00 
 211    0:10   0.01   57.7    94    5.9   287     8.1   1012.5    0.00 
 211    0:20   0.01   57.5    94    5.6   282     7.8   1012.2    0.00 
 211    0:30   0.01   57.3    94    4.7   278     7.3   1012.2    0.00 
 211    0:40   0.01   57.2    94    4.2   279     6.6   1012.2    0.00 
 211    0:50   0.01   57.2    94    3.3   275     6.4   1012.2    0.00 
 211    1:00   0.01   57.2    94    2.6   270     4.2   1012.2    0.00 
 211    1:10   0.01   57.2    94    2.2   261     3.4   1011.9    0.00 
 211    1:20   0.01   57.1    94    1.6   356     2.7   1011.9    0.00 
 211    1:30   0.01   57.2    95    0.3   331     1.2   1011.9    0.00 
 211    1:40   0.01   57.3    94    0.5   243     2.3   1011.9    0.00 
 211    1:50   0.01   57.2    94    0.6   279     2.6   1011.9    0.00 
 211    2:00   0.01   57.3    95    1.5   155     3.4   1011.9    0.00 
 211    2:10   0.01   57.2    95    3.3   192     5.7   1011.9    0.00 
 211    2:20   0.01   57.1    95    3.2   143     5.3   1011.9    0.00 
 211    2:30   0.01   57.1    95    2.3   208     3.8   1011.9    0.00 
 211    2:40   0.01   57.0    95    2.6   219     4.8   1011.9    0.00 
 211    2:50   0.01   56.6    95    3.0   232     4.3   1011.9    0.00 
 211    3:00   0.01   56.4    95    4.0   216     5.6   1011.9    0.00 
 211    3:10   0.01   56.3    95    3.1   209     5.3   1011.9    0.00 
 211    3:20   0.01   56.2    96    4.0   189     5.6   1011.9    0.00 
 211    3:30   0.01   56.3    96    2.9   166     5.2   1011.5    0.00 
 211    3:40   0.01   56.2    96    3.0   162     5.4   1011.5    0.00 
 211    3:50   0.01   56.1    96    4.4   149     7.8   1011.5    0.00 
 211    4:00   0.01   56.0    96    5.9   138     8.8   1011.5    0.00 
 211    4:10   0.01   55.8    96    4.2   125     6.6   1011.9    0.00 
 211    4:20   0.01   55.9    96    4.7   159     7.2   1011.9    0.00 
 211    4:30   0.01   55.7    96    5.2   148     8.0   1011.9    0.00 
 211    4:40   0.01   55.6    97    5.0   131     7.4   1011.9    0.00 
 211    4:50   0.01   55.6    97    6.4   131     9.3   1012.2    0.00 
 211    5:00   0.01   55.4    97    5.6   141     8.9   1012.2    0.00 
 211    5:10   0.01   55.7    97    5.3   131     9.3   1012.2    0.00 
 211    5:20   0.01   55.6    97    6.7   142    10.0   1012.2    0.00 
 211    5:30   0.01   55.5    97    5.5   133     8.4   1012.2    0.00 
 211    5:40   0.01   55.6    97    5.0   125     7.3   1012.2    0.00 
 211    5:50   0.03   55.7    97    5.2   129     8.6   1012.2    0.00 
 211    6:00   0.03   55.6    97    5.2   133     8.2   1012.5    0.00 
 211    6:10   0.04   55.5    97    4.1   116     6.7   1012.5    0.00 
 211    6:20   0.03   55.4    97    5.1   121     9.1   1012.5    0.00 
 211    6:30   0.04   55.7    97    4.3   114     6.4   1012.9    0.00 
 211    6:40   0.05   55.8    97    4.5   125     8.6   1012.9    0.00 
 211    6:50   0.06   56.0    97    5.2   145     7.8   1012.9    0.00 
 211    7:00   0.07   56.2    97    5.5   136     9.3   1012.9    0.00 
 211    7:10   0.07   56.1    97    3.8   143     6.9   1012.9    0.00 
 211    7:20   0.07   56.2    97    3.5   134     6.0   1012.9    0.00 
 211    7:30   0.08   56.4    97    3.0   155     6.1   1013.2    0.00 
 211    7:40   0.09   56.6    97    3.2   152     5.9   1013.2    0.00 
 211    7:50   0.10   56.8    96    5.0   154     7.3   1013.2    0.00 
 211    8:00   0.13   57.0    96    4.6   140     9.2   1013.2    0.00 
 211    8:10   0.13   56.9    96    3.3   124     6.9   1013.2    0.00 
 211    8:20   0.17   57.1    96    4.5   144     6.9   1013.2    0.00 
 211    8:30   0.19   57.4    95    4.3   119     8.1   1013.2    0.00 
 211    8:40   0.20   57.7    94    4.8   135     9.1   1013.2    0.00 
 211    8:50   0.22   58.1    93    6.2   136     8.9   1013.5    0.00 
 211    9:00   0.23   58.2    92    6.1   142     9.9   1013.5    0.00 
 211    9:10   0.29   58.5    90    6.6   144    10.2   1013.5    0.00 
 211    9:20   0.30   59.1    88    6.3   149     9.3   1013.5    0.00 
 211    9:30   0.31   59.1    88    6.0   141     9.0   1013.5    0.00 
 211    9:40   0.33   59.6    87    5.8   155    10.2   1013.5    0.00 
 211    9:50   0.43   60.2    85    5.8   145    10.2   1013.5    0.00 
 211   10:00   0.44   60.4    84    6.9   140    10.2   1013.9    0.00 
 211   10:10   0.51   60.3    84    6.5   130    10.3   1013.9    0.00 
 211   10:20   0.47   60.4    85    6.4   132     9.6   1013.9    0.00 
 211   10:30   0.58   60.8    84    6.6   133    10.0   1013.9    0.00 
 211   10:40   0.65   61.1    83    7.1   134    11.3   1013.9    0.00 
 211   10:50   0.79   62.2    80    5.8   136     9.8   1014.2    0.00 
 211   11:00   0.80   62.8    78    5.3   144     8.2   1014.2    0.00 
 211   11:10   0.64   62.9    78    5.3   184     9.1   1014.2    0.00 
 211   11:20   0.70   62.8    79    3.6   189     7.8   1014.2    0.00 
 211   11:30   0.71   64.0    76    5.5   168    11.1   1013.9    0.00 
 211   11:40   0.65   64.0    77    4.6   207     7.9   1013.9    0.00 
 211   11:50   0.63   63.5    78    5.0   194     9.9   1013.9    0.00 
 211   12:00   0.58   63.2    79    4.9   208     8.2   1013.9    0.00 
 211   12:10   0.64   62.9    80    4.1   240     7.1   1013.9    0.00 
 211   12:20   0.60   63.3    79    5.5   237     9.4   1013.9    0.00 
 211   12:30   0.67   62.9    79    5.4   249     8.6   1013.9    0.00 
 211   12:40   0.64   62.9    79    5.2   249     9.3   1013.9    0.00 
 211   12:50   0.64   62.5    80    5.1   275     8.7   1013.9    0.00 
 211   13:00   0.69   62.8    80    5.1   280     8.6   1013.9    0.00 
 211   13:10   0.62   63.8    78    6.0   274     9.6   1013.5    0.00 
 211   13:20   0.57   63.4    79    7.4   286    10.7   1013.5    0.00 
 211   13:30   0.54   63.8    78    7.9   273    11.6   1013.5    0.00 
 211   13:40   0.47   63.1    80    9.2   280    12.2   1013.5    0.00 
 211   13:50   0.47   62.9    80   10.3   278    14.1   1013.5    0.00 
 211   14:00   0.45   62.5    81   10.8   278    13.5   1013.2    0.00 
 211   14:10   0.48   62.6    81   10.7   280    14.7   1013.2    0.00 
 211   14:20   0.48   62.5    81   10.6   280    13.9   1013.2    0.00 
 211   14:30   0.44   62.1    82   10.4   278    13.0   1012.9    0.00 
 211   14:40   0.43   62.2    81    9.1   281    12.9   1012.9    0.00 
 211   14:50   0.41   62.0    81    8.9   279    11.8   1012.9    0.00 
 211   15:00   0.41   61.6    82    9.0   285    12.1   1012.9    0.00 
 211   15:10   0.37   61.8    81    8.7   277    12.6   1012.9    0.00 
 211   15:20   0.38   61.4    82    9.4   282    12.6   1012.9    0.00 
 211   15:30   0.34   61.7    81    9.0   285    12.1   1012.5    0.00 
 211   15:40   0.31   61.2    83   10.0   291    13.2   1012.5    0.00 
 211   15:50   0.28   61.2    83    9.2   296    12.8   1012.5    0.00 
 211   16:00   0.26   60.6    84    8.7   280    12.1   1012.5    0.00 

Return to Bodega Marine Reserve graphs page.


Western Regional Climate Center,wrcc@dri.edu